sensor_id;sensor_type;location;lat;lon;timestamp;pressure;altitude;pressure_sealevel;temperature;humidity
64076;BME280;50327;51.328;12.324;2023-03-03T00:01:21;53114.31;;;-144.47;100.00
64076;BME280;50327;51.328;12.324;2023-03-03T00:03:49;53078.53;;;-144.47;100.00
64076;BME280;50327;51.328;12.324;2023-03-03T00:06:14;53064.66;;;-144.47;100.00
64076;BME280;50327;51.328;12.324;2023-03-03T00:08:40;53098.41;;;-144.47;100.00
64076;BME280;50327;51.328;12.324;2023-03-03T00:11:07;53092.44;;;-144.47;100.00
64076;BME280;50327;51.328;12.324;2023-03-03T00:18:52;53048.75;;;-144.47;100.00
64076;BME280;50327;51.328;12.324;2023-03-03T00:23:51;53084.50;;;-144.47;100.00
64076;BME280;50327;51.328;12.324;2023-03-03T00:26:22;53086.50;;;-144.47;100.00
64076;BME280;50327;51.328;12.324;2023-03-03T00:28:54;53090.47;;;-144.47;100.00
64076;BME280;50327;51.328;12.324;2023-03-03T00:31:30;53078.53;;;-144.47;100.00
64076;BME280;50327;51.328;12.324;2023-03-03T00:34:19;53074.56;;;-144.47;100.00
64076;BME280;50327;51.328;12.324;2023-03-03T00:36:51;53094.44;;;-144.47;100.00
64076;BME280;50327;51.328;12.324;2023-03-03T00:41:58;53074.56;;;-144.47;100.00
64076;BME280;50327;51.328;12.324;2023-03-03T00:44:38;53086.50;;;-144.47;100.00
64076;BME280;50327;51.328;12.324;2023-03-03T00:47:25;53110.31;;;-144.47;100.00
64076;BME280;50327;51.328;12.324;2023-03-03T00:49:53;53108.34;;;-144.47;100.00
64076;BME280;50327;51.328;12.324;2023-03-03T00:52:19;53100.41;;;-144.47;100.00
64076;BME280;50327;51.328;12.324;2023-03-03T00:54:45;53074.56;;;-144.47;100.00
64076;BME280;50327;51.328;12.324;2023-03-03T00:57:11;53070.59;;;-144.47;100.00
64076;BME280;50327;51.328;12.324;2023-03-03T00:59:39;53066.63;;;-144.47;100.00
64076;BME280;50327;51.328;12.324;2023-03-03T01:02:06;53100.41;;;-144.47;100.00
64076;BME280;50327;51.328;12.324;2023-03-03T01:04:31;53106.34;;;-144.47;100.00
64076;BME280;50327;51.328;12.324;2023-03-03T01:06:57;53110.31;;;-144.47;100.00
64076;BME280;50327;51.328;12.324;2023-03-03T01:09:22;53094.44;;;-144.47;100.00
64076;BME280;50327;51.328;12.324;2023-03-03T01:11:49;53086.50;;;-144.47;100.00
64076;BME280;50327;51.328;12.324;2023-03-03T01:14:15;53082.53;;;-144.47;100.00
64076;BME280;50327;51.328;12.324;2023-03-03T01:16:40;53110.31;;;-144.47;100.00
64076;BME280;50327;51.328;12.324;2023-03-03T01:19:06;53094.44;;;-144.47;100.00
64076;BME280;50327;51.328;12.324;2023-03-03T01:21:32;53104.38;;;-144.47;100.00
64076;BME280;50327;51.328;12.324;2023-03-03T01:23:57;53076.56;;;-144.47;100.00
64076;BME280;50327;51.328;12.324;2023-03-03T01:26:22;53098.41;;;-144.47;100.00
64076;BME280;50327;51.328;12.324;2023-03-03T01:28:48;53102.38;;;-144.47;100.00
64076;BME280;50327;51.328;12.324;2023-03-03T01:31:13;53100.41;;;-144.47;100.00
64076;BME280;50327;51.328;12.324;2023-03-03T01:33:38;53090.47;;;-144.47;100.00
64076;BME280;50327;51.328;12.324;2023-03-03T01:36:04;53104.38;;;-144.47;100.00
64076;BME280;50327;51.328;12.324;2023-03-03T01:38:30;53084.50;;;-144.47;100.00
64076;BME280;50327;51.328;12.324;2023-03-03T01:40:57;53132.19;;;-144.47;100.00
64076;BME280;50327;51.328;12.324;2023-03-03T01:43:26;53094.44;;;-144.47;100.00
64076;BME280;50327;51.328;12.324;2023-03-03T01:48:33;53082.53;;;-144.47;100.00
64076;BME280;50327;51.328;12.324;2023-03-03T01:53:44;53078.53;;;-144.47;100.00
64076;BME280;50327;51.328;12.324;2023-03-03T01:56:10;53070.59;;;-144.47;100.00
64076;BME280;50327;51.328;12.324;2023-03-03T01:58:39;53090.47;;;-144.47;100.00
64076;BME280;50327;51.328;12.324;2023-03-03T02:01:10;53072.59;;;-144.47;100.00
64076;BME280;50327;51.328;12.324;2023-03-03T02:03:37;53110.31;;;-144.47;100.00
64076;BME280;50327;51.328;12.324;2023-03-03T02:06:07;53064.66;;;-144.47;100.00
64076;BME280;50327;51.328;12.324;2023-03-03T02:08:41;53080.53;;;-144.47;100.00
64076;BME280;50327;51.328;12.324;2023-03-03T02:11:09;53074.56;;;-144.47;100.00
64076;BME280;50327;51.328;12.324;2023-03-03T02:13:35;53086.50;;;-144.47;100.00
64076;BME280;50327;51.328;12.324;2023-03-03T02:16:00;53106.34;;;-144.47;100.00
64076;BME280;50327;51.328;12.324;2023-03-03T02:18:26;53058.69;;;-144.47;100.00
64076;BME280;50327;51.328;12.324;2023-03-03T02:23:49;53104.38;;;-144.47;100.00
64076;BME280;50327;51.328;12.324;2023-03-03T02:26:20;53100.41;;;-144.47;100.00
64076;BME280;50327;51.328;12.324;2023-03-03T02:28:47;53110.31;;;-144.47;100.00
64076;BME280;50327;51.328;12.324;2023-03-03T02:31:18;53098.41;;;-144.47;100.00
64076;BME280;50327;51.328;12.324;2023-03-03T02:33:46;53086.50;;;-144.47;100.00
64076;BME280;50327;51.328;12.324;2023-03-03T02:36:16;53126.22;;;-144.47;100.00
64076;BME280;50327;51.328;12.324;2023-03-03T02:38:47;53104.38;;;-144.47;100.00
64076;BME280;50327;51.328;12.324;2023-03-03T02:41:38;53086.50;;;-144.47;100.00
64076;BME280;50327;51.328;12.324;2023-03-03T02:44:06;53106.34;;;-144.47;100.00
64076;BME280;50327;51.328;12.324;2023-03-03T02:46:36;53106.34;;;-144.47;100.00
64076;BME280;50327;51.328;12.324;2023-03-03T02:49:03;53074.56;;;-144.47;100.00
64076;BME280;50327;51.328;12.324;2023-03-03T02:51:29;53076.56;;;-144.47;100.00
64076;BME280;50327;51.328;12.324;2023-03-03T02:53:54;53104.38;;;-144.47;100.00
64076;BME280;50327;51.328;12.324;2023-03-03T02:56:20;53080.53;;;-144.47;100.00
64076;BME280;50327;51.328;12.324;2023-03-03T02:58:45;53112.31;;;-144.47;100.00
64076;BME280;50327;51.328;12.324;2023-03-03T03:01:10;53108.34;;;-144.47;100.00
64076;BME280;50327;51.328;12.324;2023-03-03T03:03:36;53078.53;;;-144.47;100.00
64076;BME280;50327;51.328;12.324;2023-03-03T03:06:02;53090.47;;;-144.47;100.00
64076;BME280;50327;51.328;12.324;2023-03-03T03:08:27;53086.50;;;-144.47;100.00
64076;BME280;50327;51.328;12.324;2023-03-03T03:10:53;53092.44;;;-144.47;100.00
64076;BME280;50327;51.328;12.324;2023-03-03T03:13:18;53102.38;;;-144.47;100.00
64076;BME280;50327;51.328;12.324;2023-03-03T03:15:45;53096.41;;;-144.47;100.00
64076;BME280;50327;51.328;12.324;2023-03-03T03:18:11;53104.38;;;-144.47;100.00
64076;BME280;50327;51.328;12.324;2023-03-03T03:20:37;53084.50;;;-144.47;100.00
64076;BME280;50327;51.328;12.324;2023-03-03T03:23:04;53084.50;;;-144.47;100.00
64076;BME280;50327;51.328;12.324;2023-03-03T03:25:30;53098.41;;;-144.47;100.00
64076;BME280;50327;51.328;12.324;2023-03-03T03:27:58;53112.31;;;-144.47;100.00
64076;BME280;50327;51.328;12.324;2023-03-03T03:30:23;53092.44;;;-144.47;100.00
64076;BME280;50327;51.328;12.324;2023-03-03T03:32:49;53108.34;;;-144.47;100.00
64076;BME280;50327;51.328;12.324;2023-03-03T03:35:14;53110.31;;;-144.47;100.00
64076;BME280;50327;51.328;12.324;2023-03-03T03:37:41;53102.38;;;-144.47;100.00
64076;BME280;50327;51.328;12.324;2023-03-03T03:40:07;53114.31;;;-144.47;100.00
64076;BME280;50327;51.328;12.324;2023-03-03T03:42:33;53106.34;;;-144.47;100.00
64076;BME280;50327;51.328;12.324;2023-03-03T03:44:58;53098.41;;;-144.47;100.00
64076;BME280;50327;51.328;12.324;2023-03-03T03:47:24;53116.28;;;-144.47;100.00
64076;BME280;50327;51.328;12.324;2023-03-03T03:49:49;53104.38;;;-144.47;100.00
64076;BME280;50327;51.328;12.324;2023-03-03T03:52:14;53100.41;;;-144.47;100.00
64076;BME280;50327;51.328;12.324;2023-03-03T03:54:40;53114.31;;;-144.47;100.00
64076;BME280;50327;51.328;12.324;2023-03-03T03:57:05;53114.31;;;-144.47;100.00
64076;BME280;50327;51.328;12.324;2023-03-03T03:59:31;53086.50;;;-144.47;100.00
64076;BME280;50327;51.328;12.324;2023-03-03T04:01:56;53100.41;;;-144.47;100.00
64076;BME280;50327;51.328;12.324;2023-03-03T04:04:22;53070.59;;;-144.47;100.00
64076;BME280;50327;51.328;12.324;2023-03-03T04:06:47;53086.50;;;-144.47;100.00
64076;BME280;50327;51.328;12.324;2023-03-03T04:09:13;53110.31;;;-144.47;100.00
64076;BME280;50327;51.328;12.324;2023-03-03T04:11:38;53086.50;;;-144.47;100.00
64076;BME280;50327;51.328;12.324;2023-03-03T04:14:04;53100.41;;;-144.47;100.00
64076;BME280;50327;51.328;12.324;2023-03-03T04:16:30;53070.59;;;-144.47;100.00
64076;BME280;50327;51.328;12.324;2023-03-03T04:18:55;53084.50;;;-144.47;100.00
64076;BME280;50327;51.328;12.324;2023-03-03T04:21:21;53078.53;;;-144.47;100.00
64076;BME280;50327;51.328;12.324;2023-03-03T04:23:46;53136.16;;;-144.47;100.00
64076;BME280;50327;51.328;12.324;2023-03-03T04:26:12;53094.44;;;-144.47;100.00
64076;BME280;50327;51.328;12.324;2023-03-03T04:28:37;53066.63;;;-144.47;100.00
64076;BME280;50327;51.328;12.324;2023-03-03T04:31:02;53098.41;;;-144.47;100.00
64076;BME280;50327;51.328;12.324;2023-03-03T04:33:28;53102.38;;;-144.47;100.00
64076;BME280;50327;51.328;12.324;2023-03-03T04:35:53;53108.34;;;-144.47;100.00
64076;BME280;50327;51.328;12.324;2023-03-03T04:38:19;53102.38;;;-144.47;100.00
64076;BME280;50327;51.328;12.324;2023-03-03T04:40:44;53098.41;;;-144.47;100.00
64076;BME280;50327;51.328;12.324;2023-03-03T04:43:10;53068.63;;;-144.47;100.00
64076;BME280;50327;51.328;12.324;2023-03-03T04:45:35;53106.34;;;-144.47;100.00
64076;BME280;50327;51.328;12.324;2023-03-03T04:48:01;53078.53;;;-144.47;100.00
64076;BME280;50327;51.328;12.324;2023-03-03T04:50:27;53086.50;;;-144.47;100.00
64076;BME280;50327;51.328;12.324;2023-03-03T04:52:52;53080.53;;;-144.47;100.00
64076;BME280;50327;51.328;12.324;2023-03-03T04:55:18;53094.44;;;-144.47;100.00
64076;BME280;50327;51.328;12.324;2023-03-03T04:57:43;53100.41;;;-144.47;100.00
64076;BME280;50327;51.328;12.324;2023-03-03T05:00:10;53110.31;;;-144.47;100.00
64076;BME280;50327;51.328;12.324;2023-03-03T05:02:38;53084.50;;;-144.47;100.00
64076;BME280;50327;51.328;12.324;2023-03-03T05:05:04;53124.22;;;-144.47;100.00
64076;BME280;50327;51.328;12.324;2023-03-03T05:07:30;53082.53;;;-144.47;100.00
64076;BME280;50327;51.328;12.324;2023-03-03T05:09:55;53108.34;;;-144.47;100.00
64076;BME280;50327;51.328;12.324;2023-03-03T05:12:21;53110.31;;;-144.47;100.00
64076;BME280;50327;51.328;12.324;2023-03-03T05:14:46;53114.31;;;-144.47;100.00
64076;BME280;50327;51.328;12.324;2023-03-03T05:17:11;53072.59;;;-144.47;100.00
64076;BME280;50327;51.328;12.324;2023-03-03T05:19:37;53084.50;;;-144.47;100.00
64076;BME280;50327;51.328;12.324;2023-03-03T05:22:02;53090.47;;;-144.47;100.00
64076;BME280;50327;51.328;12.324;2023-03-03T05:24:27;53106.34;;;-144.47;100.00
64076;BME280;50327;51.328;12.324;2023-03-03T05:26:53;53078.53;;;-144.47;100.00
64076;BME280;50327;51.328;12.324;2023-03-03T05:29:19;53122.25;;;-144.47;100.00
64076;BME280;50327;51.328;12.324;2023-03-03T05:31:44;53062.66;;;-144.47;100.00
64076;BME280;50327;51.328;12.324;2023-03-03T05:34:10;53086.50;;;-144.47;100.00
64076;BME280;50327;51.328;12.324;2023-03-03T05:36:35;53110.31;;;-144.47;100.00
64076;BME280;50327;51.328;12.324;2023-03-03T05:39:00;53078.53;;;-144.47;100.00
64076;BME280;50327;51.328;12.324;2023-03-03T05:41:26;53092.44;;;-144.47;100.00
64076;BME280;50327;51.328;12.324;2023-03-03T05:43:51;53112.31;;;-144.47;100.00
64076;BME280;50327;51.328;12.324;2023-03-03T05:46:17;53110.31;;;-144.47;100.00
64076;BME280;50327;51.328;12.324;2023-03-03T05:48:42;53102.38;;;-144.47;100.00
64076;BME280;50327;51.328;12.324;2023-03-03T05:51:08;53086.50;;;-144.47;100.00
64076;BME280;50327;51.328;12.324;2023-03-03T05:53:33;53110.31;;;-144.47;100.00
64076;BME280;50327;51.328;12.324;2023-03-03T05:55:59;53102.38;;;-144.47;100.00
64076;BME280;50327;51.328;12.324;2023-03-03T05:58:25;53082.53;;;-144.47;100.00
64076;BME280;50327;51.328;12.324;2023-03-03T06:00:50;53086.50;;;-144.47;100.00
64076;BME280;50327;51.328;12.324;2023-03-03T06:03:19;53068.63;;;-144.47;100.00
64076;BME280;50327;51.328;12.324;2023-03-03T06:05:44;53096.41;;;-144.47;100.00
64076;BME280;50327;51.328;12.324;2023-03-03T06:08:09;53092.44;;;-144.47;100.00
64076;BME280;50327;51.328;12.324;2023-03-03T06:10:35;53094.44;;;-144.47;100.00
64076;BME280;50327;51.328;12.324;2023-03-03T06:13:00;53072.59;;;-144.47;100.00
64076;BME280;50327;51.328;12.324;2023-03-03T06:15:26;53090.47;;;-144.47;100.00
64076;BME280;50327;51.328;12.324;2023-03-03T06:17:51;53090.47;;;-144.47;100.00
64076;BME280;50327;51.328;12.324;2023-03-03T06:20:16;53080.53;;;-144.47;100.00
64076;BME280;50327;51.328;12.324;2023-03-03T06:22:42;53106.34;;;-144.47;100.00
64076;BME280;50327;51.328;12.324;2023-03-03T06:25:08;53088.47;;;-144.47;100.00
64076;BME280;50327;51.328;12.324;2023-03-03T06:27:33;53082.53;;;-144.47;100.00
64076;BME280;50327;51.328;12.324;2023-03-03T06:29:59;53092.44;;;-144.47;100.00
64076;BME280;50327;51.328;12.324;2023-03-03T06:32:24;53090.47;;;-144.47;100.00
64076;BME280;50327;51.328;12.324;2023-03-03T06:34:50;53088.47;;;-144.47;100.00
64076;BME280;50327;51.328;12.324;2023-03-03T06:37:15;53100.41;;;-144.47;100.00
64076;BME280;50327;51.328;12.324;2023-03-03T06:39:40;53066.63;;;-144.47;100.00
64076;BME280;50327;51.328;12.324;2023-03-03T06:42:06;53070.59;;;-144.47;100.00
64076;BME280;50327;51.328;12.324;2023-03-03T06:44:34;53092.44;;;-144.47;100.00
64076;BME280;50327;51.328;12.324;2023-03-03T06:46:59;53090.47;;;-144.47;100.00
64076;BME280;50327;51.328;12.324;2023-03-03T06:49:24;53094.44;;;-144.47;100.00
64076;BME280;50327;51.328;12.324;2023-03-03T06:51:50;53110.31;;;-144.47;100.00
64076;BME280;50327;51.328;12.324;2023-03-03T06:54:18;53102.38;;;-144.47;100.00
64076;BME280;50327;51.328;12.324;2023-03-03T06:56:44;53080.53;;;-144.47;100.00
64076;BME280;50327;51.328;12.324;2023-03-03T06:59:20;53082.53;;;-144.47;100.00
64076;BME280;50327;51.328;12.324;2023-03-03T07:01:47;53102.38;;;-144.47;100.00
64076;BME280;50327;51.328;12.324;2023-03-03T07:06:50;53088.47;;;-144.47;100.00
64076;BME280;50327;51.328;12.324;2023-03-03T07:09:27;53090.47;;;-144.47;100.00
64076;BME280;50327;51.328;12.324;2023-03-03T07:11:56;53098.41;;;-144.47;100.00
64076;BME280;50327;51.328;12.324;2023-03-03T07:14:24;53084.50;;;-144.47;100.00
64076;BME280;50327;51.328;12.324;2023-03-03T07:16:58;53122.25;;;-144.47;100.00
64076;BME280;50327;51.328;12.324;2023-03-03T07:19:33;53050.75;;;-144.47;100.00
64076;BME280;50327;51.328;12.324;2023-03-03T07:22:20;53076.56;;;-144.47;100.00
64076;BME280;50327;51.328;12.324;2023-03-03T07:24:49;53074.56;;;-144.47;100.00
64076;BME280;50327;51.328;12.324;2023-03-03T07:29:46;53064.66;;;-144.47;100.00
64076;BME280;50327;51.328;12.324;2023-03-03T07:34:46;53090.47;;;-144.47;100.00
64076;BME280;50327;51.328;12.324;2023-03-03T07:37:19;53094.44;;;-144.47;100.00
64076;BME280;50327;51.328;12.324;2023-03-03T07:39:49;53074.56;;;-144.47;100.00
64076;BME280;50327;51.328;12.324;2023-03-03T07:42:24;53056.69;;;-144.47;100.00
64076;BME280;50327;51.328;12.324;2023-03-03T07:44:55;53110.31;;;-144.47;100.00
64076;BME280;50327;51.328;12.324;2023-03-03T07:49:48;53074.56;;;-144.47;100.00
64076;BME280;50327;51.328;12.324;2023-03-03T07:54:47;53086.50;;;-144.47;100.00
64076;BME280;50327;51.328;12.324;2023-03-03T08:02:43;53088.47;;;-144.47;100.00
64076;BME280;50327;51.328;12.324;2023-03-03T08:05:39;53094.44;;;-144.47;100.00
64076;BME280;50327;51.328;12.324;2023-03-03T08:10:52;53096.41;;;-144.47;100.00
64076;BME280;50327;51.328;12.324;2023-03-03T08:13:19;53076.56;;;-144.47;100.00
64076;BME280;50327;51.328;12.324;2023-03-03T08:15:48;53092.44;;;-144.47;100.00
64076;BME280;50327;51.328;12.324;2023-03-03T08:18:26;53080.53;;;-144.47;100.00
64076;BME280;50327;51.328;12.324;2023-03-03T08:20:57;53104.38;;;-144.47;100.00
64076;BME280;50327;51.328;12.324;2023-03-03T08:23:23;53062.66;;;-144.47;100.00
64076;BME280;50327;51.328;12.324;2023-03-03T08:25:50;53066.63;;;-144.47;100.00
64076;BME280;50327;51.328;12.324;2023-03-03T08:28:16;53076.56;;;-144.47;100.00
64076;BME280;50327;51.328;12.324;2023-03-03T08:30:43;53032.88;;;-144.47;99.15
64076;BME280;50327;51.328;12.324;2023-03-03T08:33:08;53086.50;;;-144.47;98.37
64076;BME280;50327;51.328;12.324;2023-03-03T08:35:34;53056.69;;;-144.47;97.96
64076;BME280;50327;51.328;12.324;2023-03-03T08:37:59;53046.75;;;-144.47;98.25
64076;BME280;50327;51.328;12.324;2023-03-03T08:40:25;53042.78;;;-144.47;96.91
64076;BME280;50327;51.328;12.324;2023-03-03T08:42:50;53074.56;;;-144.47;95.89
64076;BME280;50327;51.328;12.324;2023-03-03T08:45:16;53038.81;;;-144.47;95.58
64076;BME280;50327;51.328;12.324;2023-03-03T08:47:41;53080.53;;;-144.47;95.79
64076;BME280;50327;51.328;12.324;2023-03-03T08:50:08;53056.69;;;-144.47;96.42
64076;BME280;50327;51.328;12.324;2023-03-03T08:52:33;53072.59;;;-144.47;96.02
64076;BME280;50327;51.328;12.324;2023-03-03T08:54:59;53034.84;;;-144.47;96.37
64076;BME280;50327;51.328;12.324;2023-03-03T08:57:24;53034.84;;;-144.47;96.56
64076;BME280;50327;51.328;12.324;2023-03-03T08:59:49;53070.59;;;-144.47;96.29
64076;BME280;50327;51.328;12.324;2023-03-03T09:02:15;53054.72;;;-144.47;96.68
64076;BME280;50327;51.328;12.324;2023-03-03T09:04:41;53030.88;;;-144.47;95.82
64076;BME280;50327;51.328;12.324;2023-03-03T09:07:07;53046.75;;;-144.47;97.06
64076;BME280;50327;51.328;12.324;2023-03-03T09:09:32;53060.66;;;-144.47;96.56
64076;BME280;50327;51.328;12.324;2023-03-03T09:12:04;53074.56;;;-144.47;94.19
64076;BME280;50327;51.328;12.324;2023-03-03T09:14:34;53026.91;;;-144.47;94.19
64076;BME280;50327;51.328;12.324;2023-03-03T09:17:25;53009.03;;;-144.47;94.39
64076;BME280;50327;51.328;12.324;2023-03-03T09:19:51;53056.69;;;-144.47;94.70
64076;BME280;50327;51.328;12.324;2023-03-03T09:22:23;53054.72;;;-144.47;93.91
64076;BME280;50327;51.328;12.324;2023-03-03T09:24:50;53016.97;;;-144.47;94.64
64076;BME280;50327;51.328;12.324;2023-03-03T09:27:38;53038.81;;;-144.47;94.60
64076;BME280;50327;51.328;12.324;2023-03-03T09:32:50;53016.97;;;-144.47;94.44
64076;BME280;50327;51.328;12.324;2023-03-03T09:37:53;53040.81;;;-144.47;95.42
64076;BME280;50327;51.328;12.324;2023-03-03T09:46:30;53056.69;;;-144.47;95.56
64076;BME280;50327;51.328;12.324;2023-03-03T09:54:25;53018.97;;;-144.47;96.51
64076;BME280;50327;51.328;12.324;2023-03-03T10:05:14;53048.75;;;-144.47;98.12
64076;BME280;50327;51.328;12.324;2023-03-03T10:10:29;52993.13;;;-144.47;97.52
64076;BME280;50327;51.328;12.324;2023-03-03T10:18:49;53030.88;;;-144.47;94.69
64076;BME280;50327;51.328;12.324;2023-03-03T10:21:35;53018.97;;;-144.47;93.80
64076;BME280;50327;51.328;12.324;2023-03-03T10:24:30;53005.06;;;-144.47;92.66
64076;BME280;50327;51.328;12.324;2023-03-03T10:27:05;53018.97;;;-144.47;92.96
64076;BME280;50327;51.328;12.324;2023-03-03T10:29:52;53022.94;;;-144.47;93.33
64076;BME280;50327;51.328;12.324;2023-03-03T10:37:35;52995.13;;;-144.47;94.59
64076;BME280;50327;51.328;12.324;2023-03-03T10:53:31;53011.00;;;-144.47;94.89
64076;BME280;50327;51.328;12.324;2023-03-03T10:58:57;53020.94;;;-144.47;93.65
64076;BME280;50327;51.328;12.324;2023-03-03T11:01:38;53009.03;;;-144.47;94.11
64076;BME280;50327;51.328;12.324;2023-03-03T11:04:21;53020.94;;;-144.47;94.86
64076;BME280;50327;51.328;12.324;2023-03-03T11:12:53;53018.97;;;-144.47;92.83
64076;BME280;50327;51.328;12.324;2023-03-03T11:26:22;53009.03;;;-144.47;94.75
64076;BME280;50327;51.328;12.324;2023-03-03T11:29:38;53007.03;;;-144.47;94.55
64076;BME280;50327;51.328;12.324;2023-03-03T11:32:06;52987.19;;;-144.47;93.25
64076;BME280;50327;51.328;12.324;2023-03-03T11:37:23;52999.09;;;-144.47;92.02
64076;BME280;50327;51.328;12.324;2023-03-03T11:39:52;52999.09;;;-144.47;92.61
64076;BME280;50327;51.328;12.324;2023-03-03T11:42:51;52995.13;;;-144.47;92.37
64076;BME280;50327;51.328;12.324;2023-03-03T11:45:21;53036.84;;;-144.47;92.41
64076;BME280;50327;51.328;12.324;2023-03-03T11:48:05;52989.16;;;-144.47;91.71
64076;BME280;50327;51.328;12.324;2023-03-03T11:53:19;53013.00;;;-144.47;92.04
64076;BME280;50327;51.328;12.324;2023-03-03T11:55:53;53003.06;;;-144.47;93.01
64076;BME280;50327;51.328;12.324;2023-03-03T11:58:34;52977.25;;;-144.47;94.25
64076;BME280;50327;51.328;12.324;2023-03-03T12:03:49;52989.16;;;-144.47;93.65
64076;BME280;50327;51.328;12.324;2023-03-03T12:11:50;53018.97;;;-144.47;94.48
64076;BME280;50327;51.328;12.324;2023-03-03T12:17:20;53040.81;;;-144.47;94.01
64076;BME280;50327;51.328;12.324;2023-03-03T12:25:10;52991.16;;;-144.47;91.82
64076;BME280;50327;51.328;12.324;2023-03-03T12:31:00;52967.31;;;-144.47;89.83
64076;BME280;50327;51.328;12.324;2023-03-03T12:36:20;52977.25;;;-144.47;89.23
64076;BME280;50327;51.328;12.324;2023-03-03T12:44:21;53011.00;;;-144.47;91.44
64076;BME280;50327;51.328;12.324;2023-03-03T12:47:01;52983.22;;;-144.47;91.31
64076;BME280;50327;51.328;12.324;2023-03-03T12:49:50;53003.06;;;-144.47;89.55
64076;BME280;50327;51.328;12.324;2023-03-03T12:52:36;53007.03;;;-144.47;88.31
64076;BME280;50327;51.328;12.324;2023-03-03T13:00:50;52961.34;;;-144.47;89.12
64076;BME280;50327;51.328;12.324;2023-03-03T13:03:35;53003.06;;;-144.47;90.49
64076;BME280;50327;51.328;12.324;2023-03-03T13:17:03;53022.94;;;-144.47;93.62
64076;BME280;50327;51.328;12.324;2023-03-03T13:19:39;52957.38;;;-144.47;92.94
64076;BME280;50327;51.328;12.324;2023-03-03T13:22:34;53020.94;;;-144.47;93.97
64076;BME280;50327;51.328;12.324;2023-03-03T13:25:02;53007.03;;;-144.47;93.34
64076;BME280;50327;51.328;12.324;2023-03-03T13:27:51;52979.22;;;-144.47;93.28
64076;BME280;50327;51.328;12.324;2023-03-03T13:30:32;52991.16;;;-144.47;93.26
64076;BME280;50327;51.328;12.324;2023-03-03T13:33:08;53030.88;;;-144.47;93.67
64076;BME280;50327;51.328;12.324;2023-03-03T13:36:29;52999.09;;;-144.47;94.30
64076;BME280;50327;51.328;12.324;2023-03-03T13:38:48;52993.13;;;-144.47;93.47
64076;BME280;50327;51.328;12.324;2023-03-03T13:43:47;52979.22;;;-144.47;93.41
64076;BME280;50327;51.328;12.324;2023-03-03T13:57:22;52973.28;;;-144.47;94.54
64076;BME280;50327;51.328;12.324;2023-03-03T14:08:50;53009.03;;;-144.47;93.97
64076;BME280;50327;51.328;12.324;2023-03-03T14:11:45;53011.00;;;-144.47;93.46
64076;BME280;50327;51.328;12.324;2023-03-03T14:14:33;53020.94;;;-144.47;94.44
64076;BME280;50327;51.328;12.324;2023-03-03T14:20:30;53030.88;;;-144.47;92.95
64076;BME280;50327;51.328;12.324;2023-03-03T14:23:02;52993.13;;;-144.47;92.14
64076;BME280;50327;51.328;12.324;2023-03-03T14:28:22;52989.16;;;-144.47;91.19
64076;BME280;50327;51.328;12.324;2023-03-03T14:30:48;52969.31;;;-144.47;90.39
64076;BME280;50327;51.328;12.324;2023-03-03T14:33:18;52993.13;;;-144.47;89.92
64076;BME280;50327;51.328;12.324;2023-03-03T14:36:00;52953.41;;;-144.47;89.45
64076;BME280;50327;51.328;12.324;2023-03-03T14:43:40;52981.22;;;-144.47;88.69
64076;BME280;50327;51.328;12.324;2023-03-03T14:48:57;53009.03;;;-144.47;89.99
64076;BME280;50327;51.328;12.324;2023-03-03T14:51:25;52995.13;;;-144.47;91.20
64076;BME280;50327;51.328;12.324;2023-03-03T14:53:54;52989.16;;;-144.47;92.01
64076;BME280;50327;51.328;12.324;2023-03-03T14:58:47;52989.16;;;-144.47;92.47
64076;BME280;50327;51.328;12.324;2023-03-03T15:01:32;53015.00;;;-144.47;92.31
64076;BME280;50327;51.328;12.324;2023-03-03T15:04:03;53007.03;;;-144.47;92.92
64076;BME280;50327;51.328;12.324;2023-03-03T15:09:36;53018.97;;;-144.47;93.06
64076;BME280;50327;51.328;12.324;2023-03-03T15:14:45;53003.06;;;-144.47;92.87
64076;BME280;50327;51.328;12.324;2023-03-03T15:17:19;52993.13;;;-144.47;92.80
64076;BME280;50327;51.328;12.324;2023-03-03T15:27:44;53007.03;;;-144.47;91.16
64076;BME280;50327;51.328;12.324;2023-03-03T15:30:25;53011.00;;;-144.47;91.49
64076;BME280;50327;51.328;12.324;2023-03-03T15:33:04;52983.22;;;-144.47;90.95
64076;BME280;50327;51.328;12.324;2023-03-03T15:35:49;52989.16;;;-144.47;91.24
64076;BME280;50327;51.328;12.324;2023-03-03T15:39:26;52971.28;;;-144.47;90.67
64076;BME280;50327;51.328;12.324;2023-03-03T15:50:17;53003.06;;;-144.47;92.90
64076;BME280;50327;51.328;12.324;2023-03-03T15:58:11;52991.16;;;-144.47;93.33
64076;BME280;50327;51.328;12.324;2023-03-03T16:03:41;53011.00;;;-144.47;92.76
64076;BME280;50327;51.328;12.324;2023-03-03T16:06:18;53020.94;;;-144.47;93.23
64076;BME280;50327;51.328;12.324;2023-03-03T16:14:32;53013.00;;;-144.47;92.83
64076;BME280;50327;51.328;12.324;2023-03-03T16:20:28;53015.00;;;-144.47;93.53
64076;BME280;50327;51.328;12.324;2023-03-03T16:31:25;53018.97;;;-144.47;93.48
64076;BME280;50327;51.328;12.324;2023-03-03T16:34:06;52999.09;;;-144.47;93.51
64076;BME280;50327;51.328;12.324;2023-03-03T16:42:47;52983.22;;;-144.47;93.25
64076;BME280;50327;51.328;12.324;2023-03-03T16:45:20;53003.06;;;-144.47;93.99
64076;BME280;50327;51.328;12.324;2023-03-03T16:50:30;52993.13;;;-144.47;93.35
64076;BME280;50327;51.328;12.324;2023-03-03T16:53:05;52979.22;;;-144.47;92.96
64076;BME280;50327;51.328;12.324;2023-03-03T16:55:37;53015.00;;;-144.47;93.11